createdAt,value
2023-04-25T00:01:44.507Z,100.00
2023-04-25T00:04:15.445Z,100.00
2023-04-25T00:06:45.956Z,100.00
2023-04-25T00:09:18.698Z,100.00
2023-04-25T00:11:48.926Z,100.00
2023-04-25T00:14:19.108Z,100.00
2023-04-25T00:16:49.500Z,100.00
2023-04-25T00:19:19.944Z,100.00
2023-04-25T00:21:50.240Z,100.00
2023-04-25T00:24:23.209Z,100.00
2023-04-25T00:26:53.388Z,100.00
2023-04-25T00:29:23.620Z,100.00
2023-04-25T00:31:54.203Z,100.00
2023-04-25T00:34:24.446Z,100.00
2023-04-25T00:36:54.659Z,100.00
2023-04-25T00:39:27.495Z,100.00
2023-04-25T00:42:01.801Z,100.00
2023-04-25T00:44:33.300Z,100.00
2023-04-25T00:47:04.702Z,100.00
2023-04-25T00:49:35.580Z,100.00
2023-04-25T00:52:05.851Z,100.00
2023-04-25T00:54:38.727Z,100.00
2023-04-25T00:57:09.320Z,100.00
2023-04-25T00:59:40.052Z,100.00
2023-04-25T01:02:10.838Z,100.00
2023-04-25T01:04:41.782Z,100.00
2023-04-25T01:07:12.590Z,100.00
2023-04-25T01:09:45.685Z,100.00
2023-04-25T01:12:16.454Z,100.00
2023-04-25T01:14:46.616Z,100.00
2023-04-25T01:17:17.130Z,100.00
2023-04-25T01:19:47.344Z,100.00
2023-04-25T01:22:20.559Z,100.00
2023-04-25T01:24:50.980Z,100.00
2023-04-25T01:27:21.976Z,100.00
2023-04-25T01:29:52.782Z,100.00
2023-04-25T01:32:23.936Z,100.00
2023-04-25T01:34:54.370Z,100.00
2023-04-25T01:37:27.167Z,100.00
2023-04-25T01:39:57.548Z,100.00
2023-04-25T01:42:27.773Z,100.00
2023-04-25T01:44:57.960Z,100.00
2023-04-25T01:47:28.710Z,100.00
2023-04-25T01:49:59.756Z,100.00
2023-04-25T01:52:32.519Z,100.00
2023-04-25T01:55:03.490Z,100.00
2023-04-25T01:57:36.805Z,100.00
2023-04-25T02:00:10.042Z,100.00
2023-04-25T02:02:42.984Z,100.00
2023-04-25T02:05:40.278Z,100.00
2023-04-25T02:08:16.007Z,100.00
2023-04-25T02:10:46.276Z,100.00
2023-04-25T02:13:22.396Z,100.00
2023-04-25T02:16:01.622Z,100.00
2023-04-25T02:18:32.475Z,100.00
2023-04-25T02:21:04.013Z,100.00
2023-04-25T02:23:37.119Z,100.00
2023-04-25T02:26:07.534Z,100.00
2023-04-25T02:28:37.863Z,100.00
2023-04-25T02:31:08.885Z,100.00
2023-04-25T02:33:39.127Z,100.00
2023-04-25T02:36:10.498Z,100.00
2023-04-25T02:38:43.313Z,100.00
2023-04-25T02:41:13.484Z,100.00
2023-04-25T02:43:43.640Z,100.00
2023-04-25T02:46:14.405Z,100.00
2023-04-25T02:48:44.721Z,100.00
2023-04-25T02:51:15.145Z,100.00
2023-04-25T02:53:48.458Z,100.00
2023-04-25T02:56:18.839Z,100.00
2023-04-25T02:58:49.072Z,100.00
2023-04-25T03:01:19.432Z,100.00
2023-04-25T03:03:49.997Z,100.00
2023-04-25T03:06:21.136Z,100.00
2023-04-25T03:08:54.183Z,100.00
2023-04-25T03:11:24.434Z,100.00
2023-04-25T03:13:54.750Z,100.00
2023-04-25T03:16:25.133Z,100.00
2023-04-25T03:18:55.391Z,100.00
2023-04-25T03:21:26.330Z,100.00
2023-04-25T03:23:59.427Z,100.00
2023-04-25T03:26:29.788Z,100.00
2023-04-25T03:29:00.062Z,100.00
2023-04-25T03:31:30.574Z,100.00
2023-04-25T03:34:00.892Z,100.00
2023-04-25T03:36:31.328Z,100.00
2023-04-25T03:39:04.117Z,100.00
2023-04-25T03:41:35.702Z,100.00
2023-04-25T03:44:10.566Z,100.00
2023-04-25T03:46:40.871Z,100.00
2023-04-25T03:49:11.127Z,100.00
2023-04-25T03:51:59.476Z,100.00
2023-04-25T03:54:32.366Z,100.00
2023-04-25T03:57:22.932Z,100.00
2023-04-25T03:59:53.122Z,100.00
2023-04-25T04:02:23.639Z,100.00
2023-04-25T04:04:57.340Z,100.00
2023-04-25T04:07:27.882Z,100.00
2023-04-25T04:10:03.563Z,100.00
2023-04-25T04:12:39.758Z,100.00
2023-04-25T04:15:11.033Z,100.00
2023-04-25T04:17:41.859Z,100.00
2023-04-25T04:20:12.835Z,100.00
2023-04-25T04:22:44.240Z,100.00
2023-04-25T04:25:19.655Z,100.00
2023-04-25T04:28:17.302Z,100.00
2023-04-25T04:31:05.089Z,100.00
2023-04-25T04:33:35.929Z,100.00
2023-04-25T04:36:08.770Z,100.00
2023-04-25T04:38:41.858Z,100.00
2023-04-25T04:41:17.416Z,100.00
2023-04-25T04:44:15.216Z,100.00
2023-04-25T04:47:11.873Z,100.00
2023-04-25T04:50:00.765Z,100.00
2023-04-25T04:52:42.948Z,100.00
2023-04-25T04:55:33.424Z,100.00
2023-04-25T04:58:34.437Z,100.00
2023-04-25T05:01:17.158Z,100.00
2023-04-25T05:04:06.650Z,100.00
2023-04-25T05:06:48.758Z,100.00
2023-04-25T05:09:20.392Z,100.00
2023-04-25T05:12:10.952Z,100.00
2023-04-25T05:14:56.370Z,100.00
2023-04-25T05:17:55.875Z,100.00
2023-04-25T05:20:49.135Z,100.00
2023-04-25T05:23:29.069Z,100.00
2023-04-25T05:26:19.620Z,100.00
2023-04-25T05:29:28.412Z,100.00
2023-04-25T05:32:13.153Z,100.00
2023-04-25T05:34:43.437Z,100.00
2023-04-25T05:37:23.310Z,100.00
2023-04-25T05:40:02.630Z,100.00
2023-04-25T05:42:59.053Z,100.00
2023-04-25T05:45:49.586Z,100.00
2023-04-25T05:48:48.757Z,100.00
2023-04-25T05:51:42.070Z,100.00
2023-04-25T05:54:30.577Z,100.00
2023-04-25T05:57:01.157Z,100.00
2023-04-25T05:59:31.385Z,100.00
2023-04-25T06:02:02.031Z,100.00
2023-04-25T06:04:38.216Z,100.00
2023-04-25T06:07:09.434Z,100.00
2023-04-25T06:09:40.730Z,100.00
2023-04-25T06:12:10.970Z,100.00
2023-04-25T06:14:41.687Z,100.00
2023-04-25T06:17:11.998Z,100.00
2023-04-25T06:19:44.788Z,100.00
2023-04-25T06:22:16.154Z,100.00
2023-04-25T06:24:46.988Z,100.00
2023-04-25T06:27:17.270Z,100.00
2023-04-25T06:29:47.689Z,100.00
2023-04-25T06:32:19.247Z,100.00
2023-04-25T06:34:52.221Z,100.00
2023-04-25T06:37:22.451Z,100.00
2023-04-25T06:39:54.569Z,100.00
2023-04-25T06:42:24.935Z,100.00
2023-04-25T06:45:02.460Z,100.00
2023-04-25T06:47:34.066Z,100.00
2023-04-25T06:50:08.916Z,100.00
2023-04-25T06:52:40.154Z,100.00
2023-04-25T06:55:10.856Z,100.00
2023-04-25T06:57:59.549Z,100.00
2023-04-25T07:00:56.029Z,100.00
2023-04-25T07:03:28.629Z,100.00
2023-04-25T07:06:06.257Z,100.00
2023-04-25T07:08:36.647Z,100.00
2023-04-25T07:11:07.009Z,100.00
2023-04-25T07:13:37.693Z,100.00
2023-04-25T07:16:08.220Z,100.00
2023-04-25T07:18:39.767Z,100.00
2023-04-25T07:21:12.741Z,100.00
2023-04-25T07:23:44.293Z,100.00
2023-04-25T07:26:18.826Z,100.00
2023-04-25T07:29:19.171Z,100.00
2023-04-25T07:31:49.481Z,100.00
2023-04-25T07:34:19.814Z,100.00
2023-04-25T07:36:52.736Z,100.00
2023-04-25T07:39:24.345Z,100.00
2023-04-25T07:41:55.631Z,100.00
2023-04-25T07:44:31.516Z,100.00
2023-04-25T07:47:03.909Z,100.00
2023-04-25T07:49:34.790Z,100.00
2023-04-25T07:52:09.169Z,100.00
2023-04-25T07:54:41.802Z,100.00
2023-04-25T07:57:19.747Z,100.00
2023-04-25T07:59:51.545Z,100.00
2023-04-25T08:02:22.631Z,100.00
2023-04-25T08:04:53.683Z,100.00
2023-04-25T08:07:27.800Z,100.00
2023-04-25T08:10:00.298Z,100.00
2023-04-25T08:12:35.893Z,100.00
2023-04-25T08:15:08.298Z,100.00
2023-04-25T08:17:41.670Z,100.00
2023-04-25T08:20:12.478Z,100.00
2023-04-25T08:22:46.085Z,100.00
2023-04-25T08:25:30.837Z,100.00
2023-04-25T08:28:03.873Z,100.00
2023-04-25T08:30:34.363Z,100.00
2023-04-25T08:33:04.921Z,100.00
2023-04-25T08:36:01.344Z,100.00
2023-04-25T08:38:35.515Z,100.00
2023-04-25T08:41:08.945Z,100.00
2023-04-25T08:43:39.598Z,100.00
2023-04-25T08:46:10.007Z,100.00
2023-04-25T08:48:49.361Z,100.00
2023-04-25T08:51:26.801Z,100.00
2023-04-25T08:54:06.805Z,100.00
2023-04-25T08:56:40.334Z,100.00
2023-04-25T08:59:11.464Z,100.00
2023-04-25T09:01:42.132Z,100.00
2023-04-25T09:04:12.597Z,100.00
2023-04-25T09:06:45.054Z,100.00
2023-04-25T09:09:18.631Z,100.00
2023-04-25T09:11:48.878Z,100.00
2023-04-25T09:14:21.693Z,100.00
2023-04-25T09:17:09.044Z,100.00
2023-04-25T09:19:48.190Z,100.00
2023-04-25T09:22:36.389Z,100.00
2023-04-25T09:25:12.305Z,100.00
2023-04-25T09:27:53.280Z,100.00
2023-04-25T09:30:33.467Z,100.00
2023-04-25T09:33:12.268Z,100.00
2023-04-25T09:35:46.858Z,100.00
2023-04-25T09:38:25.132Z,100.00
2023-04-25T09:40:57.984Z,100.00
2023-04-25T09:43:43.065Z,100.00
2023-04-25T09:46:14.834Z,100.00
2023-04-25T09:48:52.140Z,100.00
2023-04-25T09:51:29.966Z,100.00
2023-04-25T09:54:02.715Z,100.00
2023-04-25T09:56:46.173Z,100.00
2023-04-25T09:59:16.901Z,100.00
2023-04-25T10:01:47.720Z,100.00
2023-04-25T10:04:33.859Z,100.00
2023-04-25T10:07:09.133Z,100.00
2023-04-25T10:09:41.164Z,100.00
2023-04-25T10:12:14.496Z,100.00
2023-04-25T10:24:08.119Z,100.00
2023-04-25T10:26:38.564Z,100.00
2023-04-25T10:29:13.141Z,100.00
2023-04-25T10:31:49.312Z,100.00
2023-04-25T10:34:19.840Z,100.00
2023-04-25T10:36:53.339Z,100.00
2023-04-25T10:39:27.450Z,100.00
2023-04-25T10:41:59.798Z,100.00
2023-04-25T10:44:33.636Z,100.00
2023-04-25T10:47:06.873Z,100.00
2023-04-25T10:49:37.660Z,100.00
2023-04-25T10:52:21.320Z,100.00
2023-04-25T10:54:52.392Z,100.00
2023-04-25T10:57:32.560Z,100.00
2023-04-25T11:00:19.606Z,100.00
2023-04-25T11:02:51.271Z,100.00
2023-04-25T11:05:25.190Z,100.00
2023-04-25T11:08:06.596Z,100.00
2023-04-25T11:10:39.072Z,100.00
2023-04-25T11:13:09.529Z,100.00
2023-04-25T11:15:42.317Z,100.00
2023-04-25T11:18:12.608Z,100.00
2023-04-25T11:20:42.878Z,100.00
2023-04-25T11:23:13.139Z,100.00
2023-04-25T11:25:43.360Z,100.00
2023-04-25T11:28:13.623Z,100.00
2023-04-25T11:30:51.601Z,100.00
2023-04-25T11:33:26.484Z,100.00
2023-04-25T11:35:57.764Z,100.00
2023-04-25T11:38:29.517Z,100.00
2023-04-25T11:41:01.118Z,100.00
2023-04-25T11:43:32.553Z,100.00
2023-04-25T11:46:10.120Z,100.00
2023-04-25T11:48:41.084Z,100.00
2023-04-25T11:51:11.582Z,100.00
2023-04-25T11:53:44.725Z,100.00
2023-04-25T11:56:15.618Z,100.00
2023-04-25T11:58:58.573Z,100.00
2023-04-25T12:01:35.514Z,100.00
2023-04-25T12:04:16.286Z,100.00
2023-04-25T12:06:48.696Z,100.00
2023-04-25T12:09:19.993Z,100.00
2023-04-25T12:11:51.249Z,100.00
2023-04-25T12:14:25.505Z,100.00
2023-04-25T12:16:59.325Z,100.00
2023-04-25T12:19:30.354Z,100.00
2023-04-25T12:22:00.860Z,100.00
2023-04-25T12:24:31.470Z,100.00
2023-04-25T12:27:07.009Z,100.00
2023-04-25T12:29:49.357Z,100.00
2023-04-25T12:32:23.078Z,100.00
2023-04-25T12:34:53.563Z,100.00
2023-04-25T12:37:23.815Z,100.00
2023-04-25T12:39:54.387Z,100.00
2023-04-25T12:42:24.642Z,100.00
2023-04-25T12:44:54.868Z,100.00
2023-04-25T12:47:27.695Z,100.00
2023-04-25T12:49:57.949Z,100.00
2023-04-25T12:52:28.141Z,100.00
2023-04-25T12:54:58.530Z,100.00
2023-04-25T12:57:28.753Z,100.00
2023-04-25T12:59:58.966Z,100.00
2023-04-25T13:02:31.978Z,100.00
2023-04-25T13:05:02.280Z,100.00
2023-04-25T13:07:34.090Z,100.00
2023-04-25T13:10:06.897Z,100.00
2023-04-25T13:12:37.601Z,100.00
2023-04-25T13:15:10.439Z,100.00
2023-04-25T13:17:43.421Z,100.00
2023-04-25T13:20:14.932Z,100.00
2023-04-25T13:22:46.868Z,100.00
2023-04-25T13:25:17.666Z,100.00
2023-04-25T13:27:48.015Z,100.00
2023-04-25T13:30:18.693Z,100.00
2023-04-25T13:32:51.552Z,100.00
2023-04-25T13:35:22.003Z,94.08
2023-04-25T13:37:52.406Z,79.56
2023-04-25T13:40:24.663Z,86.20
2023-04-25T13:42:55.869Z,86.44
2023-04-25T13:45:26.175Z,83.69
2023-04-25T13:47:59.077Z,94.50
2023-04-25T13:50:29.518Z,92.12
2023-04-25T13:52:59.902Z,96.52
2023-04-25T13:55:30.326Z,93.63
2023-04-25T13:58:01.035Z,96.54
2023-04-25T14:00:32.569Z,97.37
2023-04-25T14:03:09.210Z,95.67
2023-04-25T14:05:41.424Z,89.87
2023-04-25T14:08:12.209Z,88.86
2023-04-25T14:10:42.470Z,86.99
2023-04-25T14:13:12.679Z,95.19
2023-04-25T14:15:42.977Z,100.00
2023-04-25T14:18:15.940Z,100.00
2023-04-25T14:20:46.415Z,100.00
2023-04-25T14:23:16.647Z,100.00
2023-04-25T14:25:46.857Z,91.92
2023-04-25T14:28:17.106Z,93.04
2023-04-25T14:30:47.406Z,98.18
2023-04-25T14:33:20.234Z,98.56
2023-04-25T14:35:50.658Z,88.40
2023-04-25T14:38:24.234Z,79.78
2023-04-25T14:40:55.092Z,82.89
2023-04-25T14:43:25.343Z,96.13
2023-04-25T14:45:58.179Z,92.64
2023-04-25T14:48:31.444Z,100.00
2023-04-25T14:51:02.083Z,83.71
2023-04-25T14:53:32.651Z,83.13
2023-04-25T14:56:03.182Z,88.55
2023-04-25T14:58:35.054Z,85.11
2023-04-25T15:01:05.588Z,93.78
2023-04-25T15:03:38.793Z,91.99
2023-04-25T15:06:10.052Z,93.45
2023-04-25T15:08:40.342Z,93.80
2023-04-25T15:11:12.114Z,85.71
2023-04-25T15:13:42.642Z,87.76
2023-04-25T15:16:13.901Z,79.95
2023-04-25T15:18:46.794Z,80.55
2023-04-25T15:21:17.368Z,72.58
2023-04-25T15:23:47.644Z,64.29
2023-04-25T15:26:18.003Z,69.24
2023-04-25T15:28:48.365Z,67.26
2023-04-25T15:31:18.604Z,74.95
2023-04-25T15:33:51.758Z,78.00
2023-04-25T15:36:22.696Z,78.79
2023-04-25T15:38:53.154Z,64.16
2023-04-25T15:41:23.465Z,61.58
2023-04-25T15:43:53.985Z,67.59
2023-04-25T15:46:24.647Z,83.56
2023-04-25T15:48:57.693Z,88.71
2023-04-25T15:51:28.341Z,100.00
2023-04-25T15:53:59.101Z,100.00
2023-04-25T15:56:29.457Z,100.00
2023-04-25T15:58:59.752Z,100.00
2023-04-25T16:01:31.313Z,100.00
2023-04-25T16:04:04.492Z,100.00
2023-04-25T16:06:35.008Z,100.00
2023-04-25T16:09:06.817Z,100.00
2023-04-25T16:11:37.059Z,100.00
2023-04-25T16:14:07.366Z,100.00
2023-04-25T16:16:37.706Z,100.00
2023-04-25T16:19:11.188Z,100.00
2023-04-25T16:21:42.212Z,100.00
2023-04-25T16:24:12.813Z,100.00
2023-04-25T16:26:43.818Z,100.00
2023-04-25T16:29:14.840Z,100.00
2023-04-25T16:31:47.305Z,100.00
2023-04-25T16:34:21.447Z,100.00
2023-04-25T16:36:51.748Z,100.00
2023-04-25T16:39:22.519Z,100.00
2023-04-25T16:41:52.794Z,100.00
2023-04-25T16:44:23.019Z,100.00
2023-04-25T16:46:53.333Z,100.00
2023-04-25T16:49:26.578Z,100.00
2023-04-25T16:51:56.909Z,100.00
2023-04-25T16:54:27.459Z,100.00
2023-04-25T16:56:58.360Z,100.00
2023-04-25T16:59:28.629Z,100.00
2023-04-25T17:01:58.920Z,100.00
2023-04-25T17:04:32.021Z,100.00
2023-04-25T17:07:02.493Z,100.00
2023-04-25T17:09:33.113Z,100.00
2023-04-25T17:12:03.870Z,100.00
2023-04-25T17:14:36.180Z,100.00
2023-04-25T17:17:07.167Z,100.00
2023-04-25T17:19:40.320Z,100.00
2023-04-25T17:22:10.581Z,100.00
2023-04-25T17:24:40.938Z,100.00
2023-04-25T17:27:11.283Z,100.00
2023-04-25T17:29:41.510Z,100.00
2023-04-25T17:32:13.279Z,100.00
2023-04-25T17:34:48.334Z,100.00
2023-04-25T17:37:19.058Z,100.00
2023-04-25T17:39:49.296Z,100.00
2023-04-25T17:42:19.545Z,100.00
2023-04-25T17:44:49.844Z,100.00
2023-04-25T17:47:20.398Z,100.00
2023-04-25T17:49:53.340Z,100.00
2023-04-25T17:52:24.041Z,100.00
2023-04-25T17:54:54.377Z,100.00
2023-04-25T17:57:25.463Z,100.00
2023-04-25T17:59:56.368Z,100.00
2023-04-25T18:02:27.302Z,100.00
2023-04-25T18:05:00.483Z,100.00
2023-04-25T18:07:30.740Z,100.00
2023-04-25T18:10:01.061Z,100.00
2023-04-25T18:12:31.438Z,100.00
2023-04-25T18:15:02.102Z,100.00
2023-04-25T18:17:32.352Z,100.00
2023-04-25T18:20:06.874Z,100.00
2023-04-25T18:22:37.182Z,100.00
2023-04-25T18:25:09.914Z,100.00
2023-04-25T18:27:40.290Z,100.00
2023-04-25T18:30:11.652Z,100.00
2023-04-25T18:32:42.367Z,100.00
2023-04-25T18:35:15.587Z,100.00
2023-04-25T18:37:45.868Z,100.00
2023-04-25T18:40:16.623Z,100.00
2023-04-25T18:42:47.047Z,100.00
2023-04-25T18:45:17.554Z,100.00
2023-04-25T18:47:48.150Z,100.00
2023-04-25T18:50:23.386Z,100.00
2023-04-25T18:52:54.406Z,100.00
2023-04-25T18:55:24.872Z,100.00
2023-04-25T18:57:55.176Z,100.00
2023-04-25T19:00:25.508Z,100.00
2023-04-25T19:02:58.091Z,100.00
2023-04-25T19:05:31.535Z,100.00
2023-04-25T19:08:02.575Z,100.00
2023-04-25T19:10:33.109Z,100.00
2023-04-25T19:13:03.455Z,100.00
2023-04-25T19:15:34.062Z,100.00
2023-04-25T19:18:05.309Z,100.00
2023-04-25T19:20:38.514Z,100.00
2023-04-25T19:23:09.185Z,100.00
2023-04-25T19:25:39.662Z,100.00
2023-04-25T19:28:13.006Z,100.00
2023-04-25T19:30:43.270Z,100.00
2023-04-25T19:33:14.211Z,100.00
2023-04-25T19:35:47.338Z,100.00
2023-04-25T19:38:17.774Z,100.00
2023-04-25T19:40:48.868Z,100.00
2023-04-25T19:43:19.335Z,100.00
2023-04-25T19:45:49.964Z,100.00
2023-04-25T19:48:20.210Z,100.00
2023-04-25T19:50:53.115Z,100.00
2023-04-25T19:53:23.348Z,100.00
2023-04-25T19:55:53.572Z,100.00
2023-04-25T19:58:24.065Z,100.00
2023-04-25T20:00:54.303Z,100.00
2023-04-25T20:03:24.694Z,100.00
2023-04-25T20:05:57.667Z,100.00
2023-04-25T20:08:28.254Z,100.00
2023-04-25T20:10:58.518Z,100.00
2023-04-25T20:13:28.767Z,100.00
2023-04-25T20:16:01.996Z,100.00
2023-04-25T20:18:32.897Z,100.00
2023-04-25T20:21:05.725Z,100.00
2023-04-25T20:23:35.940Z,100.00
2023-04-25T20:26:06.718Z,100.00
2023-04-25T20:28:37.361Z,100.00
2023-04-25T20:31:07.895Z,100.00
2023-04-25T20:33:38.763Z,100.00
2023-04-25T20:36:12.055Z,100.00
2023-04-25T20:38:42.270Z,100.00
2023-04-25T20:41:12.503Z,100.00
2023-04-25T20:43:42.755Z,100.00
2023-04-25T20:46:13.234Z,100.00
2023-04-25T20:48:43.489Z,100.00
2023-04-25T20:51:16.816Z,100.00
2023-04-25T20:53:47.006Z,100.00
2023-04-25T20:56:17.241Z,100.00
2023-04-25T20:58:47.591Z,100.00
2023-04-25T21:01:18.729Z,100.00
2023-04-25T21:03:50.233Z,100.00
2023-04-25T21:06:23.165Z,100.00
2023-04-25T21:08:53.693Z,100.00
2023-04-25T21:11:24.253Z,100.00
2023-04-25T21:13:54.596Z,100.00
2023-04-25T21:16:25.134Z,100.00
2023-04-25T21:18:55.477Z,100.00
2023-04-25T21:21:28.357Z,100.00
2023-04-25T21:23:58.620Z,100.00
2023-04-25T21:26:28.828Z,100.00
2023-04-25T21:28:59.139Z,100.00
2023-04-25T21:31:29.597Z,100.00
2023-04-25T21:33:59.974Z,100.00
2023-04-25T21:36:33.084Z,100.00
2023-04-25T21:39:05.631Z,100.00
2023-04-25T21:41:37.615Z,100.00
2023-04-25T21:44:07.937Z,100.00
2023-04-25T21:46:38.306Z,100.00
2023-04-25T21:49:09.224Z,100.00
2023-04-25T21:51:42.090Z,100.00
2023-04-25T21:54:12.292Z,100.00
2023-04-25T21:56:42.552Z,100.00
2023-04-25T21:59:13.085Z,100.00
2023-04-25T22:01:43.637Z,100.00
2023-04-25T22:04:14.171Z,100.00
2023-04-25T22:06:47.353Z,100.00
2023-04-25T22:09:17.854Z,100.00
2023-04-25T22:11:48.259Z,100.00
2023-04-25T22:14:18.643Z,100.00
2023-04-25T22:16:50.025Z,100.00
2023-04-25T22:19:20.272Z,100.00
2023-04-25T22:21:53.060Z,100.00
2023-04-25T22:24:28.315Z,100.00
2023-04-25T22:26:59.408Z,100.00
2023-04-25T22:29:29.667Z,100.00
2023-04-25T22:32:00.043Z,100.00
2023-04-25T22:34:30.392Z,100.00
2023-04-25T22:37:03.543Z,100.00
2023-04-25T22:39:33.853Z,100.00
2023-04-25T22:42:05.282Z,100.00
2023-04-25T22:44:36.837Z,100.00
2023-04-25T22:47:07.207Z,100.00
2023-04-25T22:49:37.758Z,100.00
2023-04-25T22:52:11.250Z,100.00
2023-04-25T22:54:42.079Z,100.00
2023-04-25T22:57:12.373Z,100.00
2023-04-25T22:59:42.908Z,100.00
2023-04-25T23:02:13.823Z,100.00
2023-04-25T23:04:44.807Z,100.00
2023-04-25T23:07:18.024Z,100.00
2023-04-25T23:09:48.220Z,100.00
2023-04-25T23:12:20.009Z,100.00
2023-04-25T23:14:52.055Z,100.00
2023-04-25T23:17:22.586Z,100.00
2023-04-25T23:19:52.830Z,100.00
2023-04-25T23:22:25.655Z,100.00
2023-04-25T23:24:56.113Z,100.00
2023-04-25T23:27:26.326Z,100.00
2023-04-25T23:29:58.112Z,100.00
2023-04-25T23:32:28.863Z,100.00
2023-04-25T23:34:59.231Z,100.00
2023-04-25T23:37:32.886Z,100.00
2023-04-25T23:40:06.221Z,100.00
2023-04-25T23:42:36.805Z,100.00
2023-04-25T23:45:07.806Z,100.00
2023-04-25T23:47:38.177Z,100.00
2023-04-25T23:50:09.376Z,100.00
2023-04-25T23:52:42.257Z,100.00
2023-04-25T23:55:12.685Z,100.00
2023-04-25T23:57:44.610Z,100.00
